Time;durP1;ratioP1;P1;durP2;ratioP2;P2;SDS_P1;SDS_P2;PMS_P1;PMS_P2;Temp;Humidity;BMP_temperature;BMP_pressure;BME280_temperature;BME280_humidity;BME280_pressure;Samples;Min_cycle;Max_cycle;Signal;HPM_P1;HPM_P2
2021/10/27 00:00:46;;;;;;;8.77;4.97;;;;;;;;;;143727;591;46018;-55
2021/10/27 00:03:13;;;;;;;11.05;5.95;;;;;;;;;;143726;572;46022;-54
2021/10/27 00:05:40;;;;;;;8.45;4.82;;;;;;;;;;143727;573;46020;-55
2021/10/27 00:08:07;;;;;;;9.05;5.18;;;;;;;;;;143726;571;46022;-55
2021/10/27 00:10:34;;;;;;;10.57;5.18;;;;;;;;;;143726;570;46018;-55
2021/10/27 00:13:01;;;;;;;7.50;4.62;;;;;;;;;;143728;582;46022;-55
2021/10/27 00:15:28;;;;;;;7.57;4.85;;;;;;;;;;143727;689;46020;-55
2021/10/27 00:17:55;;;;;;;8.93;5.45;;;;;;;;;;143727;642;46010;-55
2021/10/27 00:20:23;;;;;;;9.27;5.20;;;;;;;;;;143724;615;46018;-55
2021/10/27 00:22:50;;;;;;;12.37;5.60;;;;;;;;;;143729;647;46022;-55
2021/10/27 00:25:17;;;;;;;7.47;5.10;;;;;;;;;;143725;578;46020;-54
2021/10/27 00:27:44;;;;;;;8.05;5.32;;;;;;;;;;143727;592;46010;-55
2021/10/27 00:30:12;;;;;;;12.27;4.97;;;;;;;;;;143726;569;46018;-54
2021/10/27 00:32:39;;;;;;;8.45;5.30;;;;;;;;;;143728;611;46023;-55
2021/10/27 00:35:07;;;;;;;8.25;4.78;;;;;;;;;;143728;571;46021;-55
2021/10/27 00:37:35;;;;;;;7.70;5.32;;;;;;;;;;143726;589;46022;-55
2021/10/27 00:40:02;;;;;;;7.32;4.68;;;;;;;;;;143728;573;46019;-55
2021/10/27 00:42:30;;;;;;;7.05;5.28;;;;;;;;;;143726;572;46023;-55
2021/10/27 00:44:57;;;;;;;8.85;5.53;;;;;;;;;;143727;591;46020;-55
2021/10/27 00:47:24;;;;;;;11.70;5.28;;;;;;;;;;143724;575;47010;-55
2021/10/27 00:49:51;;;;;;;7.78;5.03;;;;;;;;;;143724;597;46018;-55
2021/10/27 00:52:18;;;;;;;11.40;5.10;;;;;;;;;;143728;567;46022;-55
2021/10/27 00:54:48;;;;;;;7.20;4.78;;;;;;;;;;143726;564;46020;-55
2021/10/27 00:57:18;;;;;;;8.98;4.75;;;;;;;;;;143727;569;46050;-56
2021/10/27 00:59:46;;;;;;;6.35;4.60;;;;;;;;;;143724;570;46018;-55
2021/10/27 01:02:15;;;;;;;11.32;5.18;;;;;;;;;;143730;574;46022;-55
2021/10/27 01:04:43;;;;;;;17.30;6.22;;;;;;;;;;143726;634;46048;-54
2021/10/27 01:07:10;;;;;;;12.18;5.95;;;;;;;;;;143723;597;46022;-54
2021/10/27 01:09:38;;;;;;;9.70;5.68;;;;;;;;;;143726;569;46018;-55
2021/10/27 01:12:06;;;;;;;10.60;4.90;;;;;;;;;;143728;627;46023;-56
2021/10/27 01:14:35;;;;;;;7.93;4.72;;;;;;;;;;143727;599;46020;-54
2021/10/27 01:17:04;;;;;;;7.72;4.37;;;;;;;;;;143726;588;46022;-54
2021/10/27 01:19:55;;;;;;;9.45;4.80;;;;;;;;;;143727;581;46019;-55
2021/10/27 01:22:28;;;;;;;7.12;4.72;;;;;;;;;;143727;579;46024;-55
2021/10/27 01:24:56;;;;;;;6.05;4.30;;;;;;;;;;143727;575;46020;-55
2021/10/27 01:27:24;;;;;;;9.45;4.95;;;;;;;;;;143726;583;46022;-55
2021/10/27 01:29:52;;;;;;;6.80;4.55;;;;;;;;;;143724;755;46018;-54
2021/10/27 01:32:30;;;;;;;8.38;5.28;;;;;;;;;;143726;641;46022;-55
2021/10/27 01:34:59;;;;;;;9.20;5.10;;;;;;;;;;143727;571;46021;-54
2021/10/27 01:37:26;;;;;;;9.23;5.05;;;;;;;;;;143725;605;47010;-54
2021/10/27 01:39:54;;;;;;;9.13;5.47;;;;;;;;;;143725;591;46019;-54
2021/10/27 01:42:21;;;;;;;7.87;5.10;;;;;;;;;;143727;559;46023;-54
2021/10/27 01:44:48;;;;;;;7.68;5.20;;;;;;;;;;143726;674;46046;-55
2021/10/27 01:47:15;;;;;;;11.95;5.70;;;;;;;;;;143726;570;46023;-55
2021/10/27 01:49:43;;;;;;;10.73;4.93;;;;;;;;;;143725;638;46909;-54
2021/10/27 01:52:10;;;;;;;8.45;5.50;;;;;;;;;;143728;618;46022;-55
2021/10/27 01:54:37;;;;;;;8.57;5.10;;;;;;;;;;143728;572;46020;-54
2021/10/27 01:57:06;;;;;;;9.27;5.28;;;;;;;;;;143725;587;46026;-54
2021/10/27 01:59:34;;;;;;;8.93;4.70;;;;;;;;;;143724;706;46018;-54
2021/10/27 02:02:00;;;;;;;7.93;5.45;;;;;;;;;;143725;575;46022;-55
2021/10/27 02:04:27;;;;;;;7.95;5.18;;;;;;;;;;143723;582;47020;-55
2021/10/27 02:06:55;;;;;;;7.57;5.20;;;;;;;;;;143726;611;46010;-55
2021/10/27 02:09:21;;;;;;;9.80;5.25;;;;;;;;;;143724;579;46019;-55
2021/10/27 02:11:49;;;;;;;9.55;5.40;;;;;;;;;;143726;585;46023;-55
2021/10/27 02:14:16;;;;;;;8.45;5.18;;;;;;;;;;143728;630;46020;-55
2021/10/27 02:16:43;;;;;;;11.10;5.10;;;;;;;;;;143726;629;46023;-55
2021/10/27 02:19:10;;;;;;;8.65;4.87;;;;;;;;;;143726;580;46019;-56
2021/10/27 02:21:37;;;;;;;10.15;5.97;;;;;;;;;;143726;569;46022;-55
2021/10/27 02:24:05;;;;;;;11.68;5.18;;;;;;;;;;143723;580;47020;-55
2021/10/27 02:26:32;;;;;;;8.60;4.87;;;;;;;;;;143726;590;46022;-55
2021/10/27 02:28:59;;;;;;;8.63;5.78;;;;;;;;;;143724;574;46018;-55
2021/10/27 02:31:26;;;;;;;9.73;5.90;;;;;;;;;;143726;611;46022;-54
2021/10/27 02:33:52;;;;;;;10.52;5.40;;;;;;;;;;143727;586;46021;-54
2021/10/27 02:36:20;;;;;;;8.98;5.47;;;;;;;;;;143726;578;46010;-55
2021/10/27 02:38:47;;;;;;;9.65;5.53;;;;;;;;;;143724;606;46043;-56
2021/10/27 02:41:15;;;;;;;11.32;5.53;;;;;;;;;;143729;583;46023;-54
2021/10/27 02:43:42;;;;;;;12.52;5.40;;;;;;;;;;143727;579;46020;-55
2021/10/27 02:46:10;;;;;;;8.75;5.37;;;;;;;;;;143726;609;46010;-55
2021/10/27 02:48:37;;;;;;;9.90;5.10;;;;;;;;;;143726;579;46019;-55
2021/10/27 02:51:04;;;;;;;6.40;4.82;;;;;;;;;;143728;582;46022;-55
2021/10/27 02:53:31;;;;;;;8.15;4.93;;;;;;;;;;143725;669;47018;-55
2021/10/27 02:55:58;;;;;;;7.95;4.93;;;;;;;;;;143726;619;46023;-55
2021/10/27 02:58:25;;;;;;;7.37;5.12;;;;;;;;;;143723;564;46018;-55
2021/10/27 03:00:52;;;;;;;7.70;5.05;;;;;;;;;;143729;588;46022;-54
2021/10/27 03:03:20;;;;;;;8.35;5.03;;;;;;;;;;143728;579;46021;-55
2021/10/27 03:05:47;;;;;;;7.15;4.62;;;;;;;;;;143726;576;46022;-55
2021/10/27 03:08:14;;;;;;;7.22;4.70;;;;;;;;;;143724;613;46018;-55
2021/10/27 03:10:41;;;;;;;10.00;5.35;;;;;;;;;;143726;665;46023;-55
2021/10/27 03:13:08;;;;;;;8.50;4.82;;;;;;;;;;143727;588;46020;-55
2021/10/27 03:15:35;;;;;;;8.05;4.85;;;;;;;;;;143727;633;46022;-55
2021/10/27 03:18:02;;;;;;;7.68;4.57;;;;;;;;;;143724;592;46018;-55
2021/10/27 03:20:29;;;;;;;8.48;5.05;;;;;;;;;;143725;577;46022;-55
2021/10/27 03:22:56;;;;;;;9.93;5.75;;;;;;;;;;143727;569;46020;-55
2021/10/27 03:25:23;;;;;;;6.60;4.87;;;;;;;;;;143726;626;46010;-54
2021/10/27 03:27:50;;;;;;;9.27;5.15;;;;;;;;;;143727;642;46018;-55
2021/10/27 03:30:17;;;;;;;7.43;4.72;;;;;;;;;;143726;588;46022;-55
2021/10/27 03:32:44;;;;;;;7.35;5.00;;;;;;;;;;143727;640;46021;-54
2021/10/27 03:35:11;;;;;;;10.88;5.37;;;;;;;;;;143725;575;46917;-54
2021/10/27 03:37:38;;;;;;;11.10;5.40;;;;;;;;;;143726;592;46018;-54
2021/10/27 03:40:06;;;;;;;8.75;4.75;;;;;;;;;;143725;583;47023;-56
2021/10/27 03:42:33;;;;;;;8.70;5.28;;;;;;;;;;143727;564;46020;-55
2021/10/27 03:45:00;;;;;;;13.23;5.72;;;;;;;;;;143728;577;46010;-56
2021/10/27 03:47:27;;;;;;;9.50;5.57;;;;;;;;;;143724;632;46019;-55
2021/10/27 03:49:54;;;;;;;7.53;5.20;;;;;;;;;;143726;637;46022;-55
2021/10/27 03:52:21;;;;;;;7.62;5.25;;;;;;;;;;143727;590;46020;-55
2021/10/27 03:54:48;;;;;;;9.25;5.55;;;;;;;;;;143726;594;46011;-55
2021/10/27 03:57:15;;;;;;;8.52;5.50;;;;;;;;;;143726;572;46018;-55
2021/10/27 03:59:42;;;;;;;10.48;6.12;;;;;;;;;;143726;671;46022;-54
2021/10/27 04:02:09;;;;;;;11.40;5.45;;;;;;;;;;143728;584;46021;-55
2021/10/27 04:04:36;;;;;;;10.93;5.22;;;;;;;;;;143726;569;46022;-55
2021/10/27 04:07:03;;;;;;;15.32;6.25;;;;;;;;;;143725;579;46018;-55
2021/10/27 04:09:30;;;;;;;11.07;6.00;;;;;;;;;;143726;583;46023;-55
2021/10/27 04:11:57;;;;;;;10.07;5.70;;;;;;;;;;143728;608;46020;-56
2021/10/27 04:14:24;;;;;;;11.68;6.50;;;;;;;;;;143726;593;46022;-55
2021/10/27 04:16:51;;;;;;;8.98;5.80;;;;;;;;;;143724;610;46019;-54
2021/10/27 04:19:18;;;;;;;13.95;6.90;;;;;;;;;;143727;654;46022;-55
2021/10/27 04:21:45;;;;;;;9.98;5.53;;;;;;;;;;143726;578;46020;-55
2021/10/27 04:24:12;;;;;;;13.80;6.53;;;;;;;;;;143725;605;47010;-54
2021/10/27 04:26:39;;;;;;;9.50;5.60;;;;;;;;;;143725;571;46018;-54
2021/10/27 04:29:06;;;;;;;6.80;4.90;;;;;;;;;;143725;673;46022;-54
2021/10/27 04:31:33;;;;;;;10.70;5.87;;;;;;;;;;143727;726;46041;-54
2021/10/27 04:34:00;;;;;;;9.90;6.28;;;;;;;;;;143726;570;46010;-54
2021/10/27 04:36:27;;;;;;;8.45;5.20;;;;;;;;;;143726;612;46018;-54
2021/10/27 04:38:54;;;;;;;11.73;6.50;;;;;;;;;;143727;580;46023;-54
2021/10/27 04:41:22;;;;;;;8.43;6.05;;;;;;;;;;143727;589;46020;-55
2021/10/27 04:43:49;;;;;;;13.27;6.30;;;;;;;;;;143726;571;46010;-54
2021/10/27 04:46:15;;;;;;;9.73;5.55;;;;;;;;;;143726;578;46019;-54
2021/10/27 04:48:42;;;;;;;10.45;6.28;;;;;;;;;;143727;647;46022;-55
2021/10/27 04:51:09;;;;;;;9.75;5.75;;;;;;;;;;143727;588;46020;-54
2021/10/27 04:53:36;;;;;;;13.85;6.18;;;;;;;;;;143721;566;46918;-55
2021/10/27 04:56:04;;;;;;;12.13;5.87;;;;;;;;;;143725;579;46037;-55
2021/10/27 04:58:30;;;;;;;9.15;5.57;;;;;;;;;;143725;580;46022;-55
2021/10/27 05:00:58;;;;;;;11.50;5.68;;;;;;;;;;143728;599;46020;-55
2021/10/27 05:03:25;;;;;;;11.10;5.90;;;;;;;;;;143724;590;46918;-55
2021/10/27 05:05:56;;;;;;;9.73;5.97;;;;;;;;;;143724;581;46018;-54
2021/10/27 05:08:24;;;;;;;13.50;5.97;;;;;;;;;;143726;600;46022;-55
2021/10/27 05:10:54;;;;;;;8.55;5.32;;;;;;;;;;143727;587;46020;-54
2021/10/27 05:13:21;;;;;;;11.93;6.57;;;;;;;;;;143726;608;46010;-54
2021/10/27 05:15:49;;;;;;;10.68;5.75;;;;;;;;;;143725;591;46018;-56
2021/10/27 05:18:17;;;;;;;9.77;5.93;;;;;;;;;;143727;629;46022;-55
2021/10/27 05:20:45;;;;;;;11.18;5.85;;;;;;;;;;143728;581;46020;-55
2021/10/27 05:23:12;;;;;;;14.55;5.82;;;;;;;;;;143727;584;46010;-55
2021/10/27 05:25:39;;;;;;;12.55;6.45;;;;;;;;;;143725;569;46018;-55
2021/10/27 05:28:07;;;;;;;9.05;5.87;;;;;;;;;;143730;649;46022;-55
2021/10/27 05:30:34;;;;;;;9.35;6.20;;;;;;;;;;143727;587;46020;-55
2021/10/27 05:33:01;;;;;;;11.18;5.93;;;;;;;;;;143727;570;46010;-54
2021/10/27 05:35:30;;;;;;;9.57;6.03;;;;;;;;;;143727;613;46018;-55
2021/10/27 05:37:57;;;;;;;11.30;6.62;;;;;;;;;;143727;578;47022;-54
2021/10/27 05:40:25;;;;;;;10.43;6.72;;;;;;;;;;143727;588;47018;-55
2021/10/27 05:42:52;;;;;;;14.35;7.50;;;;;;;;;;143726;695;46022;-54
2021/10/27 05:45:24;;;;;;;10.95;7.22;;;;;;;;;;143728;620;46018;-54
2021/10/27 05:47:55;;;;;;;13.07;6.90;;;;;;;;;;143728;661;46023;-54
2021/10/27 05:50:36;;;;;;;13.35;6.85;;;;;;;;;;143729;577;46020;-55
2021/10/27 05:55:48;;;;;;;16.62;6.93;;;;;;;;;;143728;656;46018;-55
2021/10/27 05:58:15;;;;;;;14.50;6.57;;;;;;;;;;143730;582;46022;-55
2021/10/27 06:00:44;;;;;;;10.95;7.40;;;;;;;;;;143724;564;46046;-55
2021/10/27 06:03:12;;;;;;;18.95;7.65;;;;;;;;;;143726;740;46022;-55
2021/10/27 06:05:39;;;;;;;27.87;8.30;;;;;;;;;;143725;569;46042;-55
2021/10/27 06:08:06;;;;;;;12.85;6.05;;;;;;;;;;143726;601;46022;-55
2021/10/27 06:10:33;;;;;;;10.55;6.30;;;;;;;;;;143728;679;46020;-55
2021/10/27 06:13:04;;;;;;;15.35;5.95;;;;;;;;;;143727;709;46022;-55
2021/10/27 06:15:31;;;;;;;16.48;6.22;;;;;;;;;;143724;564;46019;-55
2021/10/27 06:17:59;;;;;;;12.63;6.45;;;;;;;;;;143728;580;46022;-54
2021/10/27 06:20:26;;;;;;;17.87;6.95;;;;;;;;;;143725;598;47020;-55
2021/10/27 06:22:53;;;;;;;10.27;5.57;;;;;;;;;;143728;590;46010;-55
2021/10/27 06:25:20;;;;;;;8.48;5.72;;;;;;;;;;143725;567;46018;-55
2021/10/27 06:27:50;;;;;;;11.27;6.07;;;;;;;;;;143727;586;46022;-55
2021/10/27 06:30:23;;;;;;;12.10;6.47;;;;;;;;;;143728;574;46020;-55
2021/10/27 06:33:04;;;;;;;10.77;5.95;;;;;;;;;;143726;576;47010;-55
2021/10/27 06:35:36;;;;;;;20.12;8.20;;;;;;;;;;143724;735;46912;-55
2021/10/27 06:38:22;;;;;;;14.65;7.97;;;;;;;;;;143726;564;46023;-55
2021/10/27 06:49:18;;;;;;;11.23;6.32;;;;;;;;;;143730;588;46022;-54
2021/10/27 06:51:45;;;;;;;15.48;6.43;;;;;;;;;;143726;673;46020;-54
2021/10/27 06:54:12;;;;;;;15.98;6.85;;;;;;;;;;143726;585;46022;-54
2021/10/27 06:56:39;;;;;;;15.40;6.78;;;;;;;;;;143728;593;46018;-54
2021/10/27 06:59:11;;;;;;;13.85;7.18;;;;;;;;;;143729;575;46022;-55
2021/10/27 07:15:36;;;;;;;13.87;6.30;;;;;;;;;;143729;575;46918;-54
2021/10/27 07:18:04;;;;;;;18.30;7.07;;;;;;;;;;143728;569;46018;-54
2021/10/27 07:20:32;;;;;;;14.00;8.05;;;;;;;;;;143726;573;46022;-54
2021/10/27 07:23:01;;;;;;;12.32;8.07;;;;;;;;;;143729;753;46021;-54
2021/10/27 07:25:34;;;;;;;12.40;7.60;;;;;;;;;;143728;573;46022;-54
2021/10/27 07:28:01;;;;;;;16.55;7.75;;;;;;;;;;143728;585;46018;-54
2021/10/27 07:30:28;;;;;;;15.18;7.28;;;;;;;;;;143728;582;46023;-54
2021/10/27 07:32:57;;;;;;;16.23;7.70;;;;;;;;;;143730;590;46020;-54
2021/10/27 07:35:47;;;;;;;17.42;6.82;;;;;;;;;;143727;590;47009;-54
2021/10/27 07:40:59;;;;;;;12.37;6.40;;;;;;;;;;143729;637;46022;-54
2021/10/27 07:43:29;;;;;;;15.80;7.37;;;;;;;;;;143729;576;46046;-54
2021/10/27 07:45:57;;;;;;;14.20;6.87;;;;;;;;;;143728;578;46023;-54
2021/10/27 07:48:24;;;;;;;24.90;6.85;;;;;;;;;;143729;605;46018;-54
2021/10/27 07:50:52;;;;;;;8.95;5.87;;;;;;;;;;143731;591;46022;-54
2021/10/27 07:53:19;;;;;;;12.25;6.57;;;;;;;;;;143729;582;46021;-54
2021/10/27 07:55:50;;;;;;;13.82;5.45;;;;;;;;;;143723;607;46916;-54
2021/10/27 07:58:18;;;;;;;9.77;5.68;;;;;;;;;;143726;582;46018;-54
2021/10/27 08:00:47;;;;;;;19.05;5.85;;;;;;;;;;143730;609;46023;-54
2021/10/27 08:03:15;;;;;;;15.90;5.85;;;;;;;;;;143728;634;46020;-54
2021/10/27 08:05:43;;;;;;;8.27;6.07;;;;;;;;;;143722;571;47012;-54
2021/10/27 08:08:13;;;;;;;13.93;5.93;;;;;;;;;;143729;685;46019;-53
2021/10/27 08:10:41;;;;;;;12.37;6.00;;;;;;;;;;143726;609;48010;-54
2021/10/27 08:13:09;;;;;;;12.35;6.12;;;;;;;;;;143728;578;47020;-54
2021/10/27 08:15:37;;;;;;;14.02;5.97;;;;;;;;;;143728;584;46023;-54
2021/10/27 08:18:10;;;;;;;16.05;5.90;;;;;;;;;;143725;563;47012;-54
2021/10/27 08:20:37;;;;;;;13.57;6.07;;;;;;;;;;143730;604;46023;-54
2021/10/27 08:23:09;;;;;;;9.80;5.32;;;;;;;;;;143723;649;47021;-54
2021/10/27 08:25:38;;;;;;;10.80;5.43;;;;;;;;;;143729;594;46022;-54
2021/10/27 08:28:13;;;;;;;13.02;5.60;;;;;;;;;;143728;574;46018;-54
2021/10/27 08:31:01;;;;;;;7.87;5.47;;;;;;;;;;143730;603;46023;-54
2021/10/27 08:36:18;;;;;;;11.27;5.37;;;;;;;;;;143728;566;46011;-54
2021/10/27 08:38:45;;;;;;;10.73;5.60;;;;;;;;;;143725;583;46018;-55
2021/10/27 08:41:14;;;;;;;14.43;6.25;;;;;;;;;;143730;584;46022;-55
2021/10/27 08:43:42;;;;;;;12.35;5.90;;;;;;;;;;143729;619;46019;-54
2021/10/27 08:46:11;;;;;;;11.35;5.53;;;;;;;;;;143729;570;46022;-54
2021/10/27 08:48:39;;;;;;;9.25;5.57;;;;;;;;;;143728;620;46018;-54
2021/10/27 08:51:08;;;;;;;14.87;6.37;;;;;;;;;;143730;607;48022;-54
2021/10/27 08:53:36;;;;;;;10.57;5.75;;;;;;;;;;143729;612;46021;-54
2021/10/27 08:56:05;;;;;;;13.48;5.78;;;;;;;;;;143729;581;46010;-54
2021/10/27 08:58:43;;;;;;;10.25;6.25;;;;;;;;;;143728;569;46019;-54
2021/10/27 09:01:24;;;;;;;9.10;5.60;;;;;;;;;;143729;663;46023;-54
2021/10/27 09:07:03;;;;;;;8.93;4.97;;;;;;;;;;143724;597;47012;-54
2021/10/27 09:09:50;;;;;;;8.55;5.18;;;;;;;;;;143727;571;46018;-54
2021/10/27 09:36:11;;;;;;;8.55;5.18;;;;;;;;;;143727;616;46029;-54
2021/10/27 09:44:53;;;;;;;8.35;5.50;;;;;;;;;;143727;581;46018;-54
2021/10/27 09:47:57;;;;;;;7.37;5.20;;;;;;;;;;143728;644;46022;-54
2021/10/27 09:56:27;;;;;;;6.90;5.07;;;;;;;;;;143729;586;46018;-54
2021/10/27 10:04:43;;;;;;;8.18;5.37;;;;;;;;;;143728;579;46010;-54
2021/10/27 10:07:14;;;;;;;9.45;4.70;;;;;;;;;;143729;594;46019;-54
2021/10/27 10:09:43;;;;;;;8.20;5.12;;;;;;;;;;143728;601;46022;-54
2021/10/27 10:12:11;;;;;;;12.23;6.03;;;;;;;;;;143731;592;46020;-54
2021/10/27 10:14:39;;;;;;;10.77;5.05;;;;;;;;;;143728;596;46010;-54
2021/10/27 10:17:07;;;;;;;10.35;5.40;;;;;;;;;;143730;593;46018;-54
2021/10/27 10:19:41;;;;;;;9.15;5.28;;;;;;;;;;143729;592;46022;-54
2021/10/27 10:22:35;;;;;;;10.02;5.72;;;;;;;;;;143728;587;46021;-54
2021/10/27 10:25:36;;;;;;;8.73;4.95;;;;;;;;;;143728;616;46022;-54
2021/10/27 10:28:18;;;;;;;11.10;5.37;;;;;;;;;;143726;637;46019;-54
2021/10/27 10:30:51;;;;;;;12.40;5.82;;;;;;;;;;143729;581;46023;-54
2021/10/27 10:33:18;;;;;;;12.77;5.00;;;;;;;;;;143729;607;46020;-54
2021/10/27 10:36:06;;;;;;;9.73;5.45;;;;;;;;;;143728;614;46011;-54
2021/10/27 10:39:23;;;;;;;10.85;5.57;;;;;;;;;;143727;612;46018;-54
2021/10/27 10:59:48;;;;;;;14.52;5.87;;;;;;;;;;143728;638;46010;-54
2021/10/27 11:02:58;;;;;;;9.98;6.03;;;;;;;;;;143729;637;46018;-55
2021/10/27 11:23:32;;;;;;;16.05;6.57;;;;;;;;;;143727;610;46022;-54
2021/10/27 11:37:42;;;;;;;9.93;5.45;;;;;;;;;;143757;594;45012;-54
2021/10/27 11:40:37;;;;;;;10.27;5.57;;;;;;;;;;143758;573;45022;-54
2021/10/27 11:43:19;;;;;;;8.68;5.28;;;;;;;;;;143758;612;45018;-54
2021/10/27 11:48:56;;;;;;;10.23;6.20;;;;;;;;;;143756;600;46018;-54
2021/10/27 11:51:24;;;;;;;10.95;5.75;;;;;;;;;;143745;591;46023;-55
2021/10/27 11:53:51;;;;;;;9.20;5.25;;;;;;;;;;143755;631;46041;-54
2021/10/27 11:56:21;;;;;;;11.35;5.93;;;;;;;;;;143754;576;45917;-54
2021/10/27 11:58:56;;;;;;;10.98;5.30;;;;;;;;;;143756;608;45016;-54
2021/10/27 12:01:31;;;;;;;6.25;4.68;;;;;;;;;;143755;635;45012;-54
2021/10/27 12:04:10;;;;;;;12.90;5.60;;;;;;;;;;143756;570;45019;-54
2021/10/27 12:06:48;;;;;;;10.60;5.85;;;;;;;;;;143755;587;45918;-54
2021/10/27 12:09:48;;;;;;;13.57;5.68;;;;;;;;;;143756;662;45016;-54
2021/10/27 12:15:45;;;;;;;10.02;5.15;;;;;;;;;;143755;570;45018;-54
2021/10/27 12:18:12;;;;;;;10.45;5.10;;;;;;;;;;143756;613;45011;-54
2021/10/27 12:20:53;;;;;;;10.10;5.22;;;;;;;;;;143755;587;45019;-54
2021/10/27 12:23:22;;;;;;;11.15;5.53;;;;;;;;;;143758;633;45012;-54
2021/10/27 12:25:52;;;;;;;8.15;5.57;;;;;;;;;;143730;629;46019;-54
2021/10/27 12:28:34;;;;;;;10.45;5.90;;;;;;;;;;143725;599;46023;-54
2021/10/27 12:31:19;;;;;;;8.57;5.40;;;;;;;;;;143727;580;46018;-54
2021/10/27 12:33:47;;;;;;;8.02;5.35;;;;;;;;;;143725;589;46022;-54
2021/10/27 12:36:26;;;;;;;9.82;5.72;;;;;;;;;;143727;606;46021;-54
2021/10/27 12:42:11;;;;;;;13.35;5.85;;;;;;;;;;143726;617;46019;-54
2021/10/27 12:44:52;;;;;;;10.25;5.60;;;;;;;;;;143729;592;46022;-54
2021/10/27 12:47:28;;;;;;;8.43;5.12;;;;;;;;;;143727;588;46020;-54
2021/10/27 12:50:13;;;;;;;7.28;5.00;;;;;;;;;;143726;679;46010;-54
2021/10/27 12:52:51;;;;;;;;;;;;;;;;;;143730;976;46026;-55
2021/10/27 12:55:38;;;;;;;15.25;5.70;;;;;;;;;;143732;586;46036;-55
2021/10/27 12:58:12;;;;;;;10.88;4.97;;;;;;;;;;143727;642;46023;-54
2021/10/27 13:01:09;;;;;;;7.20;5.05;;;;;;;;;;143725;564;46022;-54
2021/10/27 13:03:54;;;;;;;9.68;5.95;;;;;;;;;;143726;613;46911;-54
2021/10/27 13:06:33;;;;;;;9.80;5.55;;;;;;;;;;143726;585;46022;-54
2021/10/27 13:12:22;;;;;;;10.43;5.45;;;;;;;;;;143726;640;46013;-54
2021/10/27 13:14:54;;;;;;;9.23;5.32;;;;;;;;;;143726;590;47018;-54
2021/10/27 13:20:35;;;;;;;12.73;5.62;;;;;;;;;;143725;606;46021;-54
2021/10/27 13:23:14;;;;;;;9.15;5.47;;;;;;;;;;143726;606;46022;-54
2021/10/27 13:31:13;;;;;;;10.73;6.03;;;;;;;;;;143756;583;45014;-54
2021/10/27 13:33:41;;;;;;;9.07;5.45;;;;;;;;;;143754;572;45920;-54
2021/10/27 13:36:08;;;;;;;9.13;5.28;;;;;;;;;;143753;569;45018;-54
2021/10/27 13:38:36;;;;;;;7.18;4.80;;;;;;;;;;143754;663;45022;-55
2021/10/27 13:41:06;;;;;;;11.40;5.22;;;;;;;;;;143755;566;45019;-54
2021/10/27 13:43:44;;;;;;;9.95;5.50;;;;;;;;;;143753;592;45920;-54
2021/10/27 13:46:32;;;;;;;7.12;5.18;;;;;;;;;;143757;569;45014;-55
2021/10/27 13:49:24;;;;;;;8.82;5.57;;;;;;;;;;143745;567;46023;-54
2021/10/27 14:08:29;;;;;;;9.60;5.00;;;;;;;;;;143755;590;45018;-54
2021/10/27 14:11:12;;;;;;;9.23;5.18;;;;;;;;;;143758;586;45012;-55
2021/10/27 14:14:00;;;;;;;6.53;5.05;;;;;;;;;;143742;589;46020;-55
2021/10/27 14:16:48;;;;;;;10.60;5.20;;;;;;;;;;143744;601;46010;-54
2021/10/27 14:47:56;;;;;;;13.82;5.80;;;;;;;;;;143722;616;47011;-54
2021/10/27 14:50:52;;;;;;;14.05;5.22;;;;;;;;;;143726;611;46010;-54
2021/10/27 14:59:17;;;;;;;10.55;5.05;;;;;;;;;;143727;597;46022;-54
2021/10/27 15:21:22;;;;;;;6.68;4.95;;;;;;;;;;143726;566;46020;-54
2021/10/27 15:35:41;;;;;;;12.40;6.35;;;;;;;;;;143726;669;46010;-54
2021/10/27 15:43:48;;;;;;;8.82;5.80;;;;;;;;;;143726;571;46022;-54
2021/10/27 15:52:07;;;;;;;9.17;5.50;;;;;;;;;;143730;590;46022;-54
2021/10/27 15:54:35;;;;;;;12.32;6.18;;;;;;;;;;143726;684;46020;-54
2021/10/27 15:57:02;;;;;;;8.73;6.47;;;;;;;;;;143726;592;46010;-55
2021/10/27 15:59:30;;;;;;;10.70;7.20;;;;;;;;;;143725;607;46018;-54
2021/10/27 16:01:57;;;;;;;10.90;6.85;;;;;;;;;;143729;583;46022;-54
2021/10/27 16:04:24;;;;;;;11.75;7.50;;;;;;;;;;143726;644;46021;-54
2021/10/27 16:06:53;;;;;;;10.38;7.22;;;;;;;;;;143725;616;46022;-54
2021/10/27 16:09:24;;;;;;;12.00;7.18;;;;;;;;;;143727;719;46018;-54
2021/10/27 16:11:51;;;;;;;10.18;6.80;;;;;;;;;;143729;587;46023;-54
2021/10/27 16:14:22;;;;;;;16.42;8.57;;;;;;;;;;143727;570;46020;-54
2021/10/27 16:16:49;;;;;;;14.45;8.00;;;;;;;;;;143726;571;46023;-54
2021/10/27 16:19:17;;;;;;;12.35;8.68;;;;;;;;;;143727;598;46019;-54
2021/10/27 16:21:44;;;;;;;18.70;8.85;;;;;;;;;;143729;585;46022;-54
2021/10/27 16:24:11;;;;;;;14.07;8.32;;;;;;;;;;143724;613;49019;-54
2021/10/27 16:26:38;;;;;;;17.50;9.02;;;;;;;;;;143725;658;46023;-54
2021/10/27 16:29:05;;;;;;;20.40;9.30;;;;;;;;;;143724;570;46018;-54
2021/10/27 16:31:32;;;;;;;11.90;8.05;;;;;;;;;;143729;569;46022;-54
2021/10/27 16:33:59;;;;;;;17.15;9.25;;;;;;;;;;143723;584;49021;-54
2021/10/27 16:36:27;;;;;;;15.50;8.45;;;;;;;;;;143726;619;46022;-54
2021/10/27 16:38:54;;;;;;;12.55;8.43;;;;;;;;;;143727;755;46018;-54
2021/10/27 16:41:21;;;;;;;20.48;7.70;;;;;;;;;;143726;687;46023;-54
2021/10/27 16:43:48;;;;;;;14.85;8.63;;;;;;;;;;143728;647;46020;-54
2021/10/27 16:46:15;;;;;;;13.70;7.95;;;;;;;;;;143726;585;46022;-54
2021/10/27 16:48:42;;;;;;;13.85;8.60;;;;;;;;;;143724;620;46042;-54
2021/10/27 16:51:09;;;;;;;16.75;8.60;;;;;;;;;;143725;583;46022;-54
2021/10/27 16:53:36;;;;;;;9.98;7.65;;;;;;;;;;143728;602;46020;-54
2021/10/27 16:56:04;;;;;;;9.93;7.32;;;;;;;;;;143725;658;46023;-54
2021/10/27 16:58:31;;;;;;;12.93;7.57;;;;;;;;;;143725;586;46045;-54
2021/10/27 17:00:58;;;;;;;16.20;8.10;;;;;;;;;;143726;569;46022;-54
2021/10/27 17:03:25;;;;;;;12.13;8.20;;;;;;;;;;143728;585;46021;-54
2021/10/27 17:05:55;;;;;;;12.63;7.60;;;;;;;;;;143726;617;46022;-54
2021/10/27 17:08:24;;;;;;;14.77;8.35;;;;;;;;;;143727;679;46018;-54
2021/10/27 17:10:53;;;;;;;13.38;8.98;;;;;;;;;;143728;617;46023;-54
2021/10/27 17:13:21;;;;;;;18.25;10.30;;;;;;;;;;143726;571;46029;-54
2021/10/27 17:15:49;;;;;;;13.90;9.20;;;;;;;;;;143726;619;46022;-54
2021/10/27 17:18:16;;;;;;;13.48;7.85;;;;;;;;;;143727;574;46019;-54
2021/10/27 17:20:47;;;;;;;16.30;7.43;;;;;;;;;;143729;580;46022;-54
2021/10/27 17:23:28;;;;;;;14.55;7.70;;;;;;;;;;143728;610;46020;-54
2021/10/27 17:25:55;;;;;;;15.32;7.35;;;;;;;;;;143740;579;46919;-54
2021/10/27 17:28:22;;;;;;;13.95;9.75;;;;;;;;;;143757;613;45010;-54
2021/10/27 17:30:50;;;;;;;14.25;9.10;;;;;;;;;;143757;628;45010;-54
2021/10/27 17:33:18;;;;;;;15.88;10.18;;;;;;;;;;143756;648;45018;-54
2021/10/27 17:35:45;;;;;;;12.93;9.10;;;;;;;;;;143754;578;45916;-54
2021/10/27 17:38:12;;;;;;;14.95;9.32;;;;;;;;;;143755;606;45909;-54
2021/10/27 17:40:44;;;;;;;14.38;10.75;;;;;;;;;;143756;644;45023;-54
2021/10/27 17:43:11;;;;;;;12.32;8.05;;;;;;;;;;143756;604;45018;-54
2021/10/27 17:45:41;;;;;;;16.65;9.88;;;;;;;;;;143754;598;45916;-54
2021/10/27 17:48:29;;;;;;;11.30;8.32;;;;;;;;;;143757;586;45016;-54
2021/10/27 17:51:08;;;;;;;18.50;11.60;;;;;;;;;;143759;644;45010;-54
2021/10/27 17:59:05;;;;;;;12.98;8.43;;;;;;;;;;143757;590;45012;-54
2021/10/27 18:01:33;;;;;;;15.43;9.68;;;;;;;;;;143760;572;45012;-54
2021/10/27 18:04:02;;;;;;;19.15;9.88;;;;;;;;;;143757;606;45018;-54
2021/10/27 18:06:29;;;;;;;14.85;9.95;;;;;;;;;;143755;582;45917;-54
2021/10/27 18:08:56;;;;;;;12.32;8.90;;;;;;;;;;143755;573;45019;-54
2021/10/27 18:11:25;;;;;;;15.05;10.25;;;;;;;;;;143759;587;45023;-54
2021/10/27 18:14:12;;;;;;;14.30;10.52;;;;;;;;;;143755;638;46018;-54
2021/10/27 18:17:00;;;;;;;11.05;8.98;;;;;;;;;;143754;633;46916;-54
2021/10/27 18:19:34;;;;;;;12.05;9.88;;;;;;;;;;143744;647;46018;-54
2021/10/27 18:22:25;;;;;;;16.08;10.93;;;;;;;;;;143756;618;45022;-54
2021/10/27 18:36:23;;;;;;;;;;;;;;;;;;143729;982;46018;-54
2021/10/27 18:38:59;;;;;;;13.65;9.43;;;;;;;;;;143730;574;47011;-54
2021/10/27 18:41:36;;;;;;;12.75;8.95;;;;;;;;;;143726;601;46018;-54
2021/10/27 18:44:04;;;;;;;11.50;8.95;;;;;;;;;;143726;571;46022;-55
2021/10/27 18:46:31;;;;;;;15.75;9.90;;;;;;;;;;143728;666;46020;-54
2021/10/27 18:48:58;;;;;;;16.87;11.20;;;;;;;;;;143726;663;46022;-54
2021/10/27 18:51:27;;;;;;;12.30;8.63;;;;;;;;;;143727;569;46018;-54
2021/10/27 18:54:19;;;;;;;13.25;9.05;;;;;;;;;;143728;566;46022;-54
2021/10/27 18:59:53;;;;;;;15.75;10.98;;;;;;;;;;143728;643;46010;-55
2021/10/27 19:02:24;;;;;;;19.02;12.27;;;;;;;;;;143725;584;46019;-54
2021/10/27 19:10:44;;;;;;;21.15;12.68;;;;;;;;;;143728;578;46023;-55
2021/10/27 19:16:01;;;;;;;17.02;12.40;;;;;;;;;;143731;578;46024;-54
2021/10/27 19:18:29;;;;;;;19.05;14.15;;;;;;;;;;143728;598;46021;-54
2021/10/27 19:20:56;;;;;;;18.10;13.93;;;;;;;;;;143727;668;46010;-54
2021/10/27 19:23:24;;;;;;;17.52;11.48;;;;;;;;;;143725;643;46040;-55